Time;durP1;ratioP1;P1;durP2;ratioP2;P2;SDS_P1;SDS_P2;PMS_P1;PMS_P2;Temp;Humidity;BMP_temperature;BMP_pressure;BME280_temperature;BME280_humidity;BME280_pressure;Samples;Min_cycle;Max_cycle;Signal;HPM_P1;HPM_P2
2023/12/29 00:01:15;;;;;;;;;;;;;;;;;;5115267;27;19923;-83
2023/12/29 00:03:41;;;;;;;;;;;;;;;;;;5119575;27;19923;-83
2023/12/29 00:06:08;;;;;;;;;;;;;;;;;;5101357;28;19924;-82
2023/12/29 00:08:34;;;;;;;;;;;;;;;;;;5095335;28;19935;-82
2023/12/29 00:11:01;;;;;;;;;;;;;;;;;;5118567;28;19970;-81
2023/12/29 00:13:27;;;;;;;;;;;;;;;;;;5096915;28;19958;-82
2023/12/29 00:15:54;;;;;;;;;;;;;;;;;;5119767;27;19927;-82
2023/12/29 00:18:20;;;;;;;;;;;;;;;;;;5099288;28;20371;-83
2023/12/29 00:20:47;;;;;;;;;;;;;;;;;;5097684;27;19989;-82
2023/12/29 00:23:13;;;;;;;;;;;;;;;;;;5115219;27;19928;-83
2023/12/29 00:25:40;;;;;;;;;;;;;;;;;;5098130;28;19924;-82
2023/12/29 00:28:06;;;;;;;;;;;;;;;;;;5102362;28;19924;-81
2023/12/29 00:30:33;;;;;;;;;;;;;;;;;;5098305;28;20304;-82
2023/12/29 00:33:12;;;;;;;;;;;;;;;;;;5114514;28;19976;-84
2023/12/29 00:35:39;;;;;;;;;;;;;;;;;;5118508;28;20380;-83
2023/12/29 00:38:06;;;;;;;;;;;;;;;;;;5119462;28;20649;-82
2023/12/29 00:40:32;;;;;;;;;;;;;;;;;;5114620;28;20013;-83
2023/12/29 00:42:59;;;;;;;;;;;;;;;;;;5099827;28;19931;-82
2023/12/29 00:45:25;;;;;;;;;;;;;;;;;;5101397;28;19924;-84
2023/12/29 00:47:52;;;;;;;;;;;;;;;;;;5117643;28;19928;-82
2023/12/29 00:50:18;;;;;;;;;;;;;;;;;;5119306;28;19923;-82
2023/12/29 00:52:45;;;;;;;;;;;;;;;;;;5091932;28;19930;-82
2023/12/29 00:55:11;;;;;;;;;;;;;;;;;;5096236;28;19991;-82
2023/12/29 00:57:38;;;;;;;;;;;;;;;;;;5096164;28;20346;-82
2023/12/29 01:00:05;;;;;;;;;;;;;;;;;;5096170;28;20051;-82
2023/12/29 01:02:31;;;;;;;;;;;;;;;;;;5083090;28;20340;-82
2023/12/29 01:04:58;;;;;;;;;;;;;;;;;;5080136;28;20437;-82
2023/12/29 01:07:24;;;;;;;;;;;;;;;;;;5084757;28;20295;-81
2023/12/29 01:09:52;;;;;;;;;;;;;;;;;;5118791;28;19931;-82
2023/12/29 01:12:18;;;;;;;;;;;;;;;;;;5118320;28;20337;-83
2023/12/29 01:14:45;;;;;;;;;;;;;;;;;;5082998;28;19928;-83
2023/12/29 01:17:11;;;;;;;;;;;;;;;;;;5100751;28;20015;-83
2023/12/29 01:19:37;;;;;;;;;;;;;;;;;;5111946;28;19924;-82
2023/12/29 01:22:04;;;;;;;;;;;;;;;;;;5117195;27;19927;-83
2023/12/29 01:24:30;;;;;;;;;;;;;;;;;;5099870;28;19924;-82
2023/12/29 01:27:05;;;;;;;;;;;;;;;;;;5106132;27;20028;-85
2023/12/29 01:29:31;;;;;;;;;;;;;;;;;;5099562;27;19929;-81
2023/12/29 01:31:58;;;;;;;;;;;;;;;;;;5121060;27;20014;-81
2023/12/29 01:34:32;;;;;;;;;;;;;;;;;;5100055;27;20013;-83
2023/12/29 01:36:58;;;;;;;;;;;;;;;;;;5121791;27;19923;-82
2023/12/29 01:39:25;;;;;;;;;;;;;;;;;;5105524;27;19923;-82
2023/12/29 01:41:51;;;;;;;;;;;;;;;;;;5088971;27;19928;-82
2023/12/29 01:44:19;;;;;;;;;;;;;;;;;;5104103;27;20376;-81
2023/12/29 01:46:46;;;;;;;;;;;;;;;;;;5101861;28;19970;-82
2023/12/29 01:49:12;;;;;;;;;;;;;;;;;;5100730;28;20395;-82
2023/12/29 01:51:39;;;;;;;;;;;;;;;;;;5085260;28;20293;-82
2023/12/29 01:54:05;;;;;;;;;;;;;;;;;;5099617;28;19930;-82
2023/12/29 01:56:32;;;;;;;;;;;;;;;;;;5122866;27;19930;-82
2023/12/29 01:58:58;;;;;;;;;;;;;;;;;;5096362;27;19924;-83
2023/12/29 02:01:32;;;;;;;;;;;;;;;;;;5107599;27;19927;-82
2023/12/29 02:03:59;;;;;;;;;;;;;;;;;;5103345;27;20285;-82
2023/12/29 02:06:25;;;;;;;;;;;;;;;;;;5090382;27;20367;-82
2023/12/29 02:08:52;;;;;;;;;;;;;;;;;;5123709;27;19924;-82
2023/12/29 02:11:19;;;;;;;;;;;;;;;;;;5099048;28;20427;-82
2023/12/29 02:13:45;;;;;;;;;;;;;;;;;;5085963;27;20277;-82
2023/12/29 02:16:12;;;;;;;;;;;;;;;;;;5097734;28;19928;-83
2023/12/29 02:18:38;;;;;;;;;;;;;;;;;;5084099;27;19931;-81
2023/12/29 02:21:05;;;;;;;;;;;;;;;;;;5100907;27;19953;-81
2023/12/29 02:23:31;;;;;;;;;;;;;;;;;;5085101;27;19924;-82
2023/12/29 02:25:59;;;;;;;;;;;;;;;;;;5118868;27;19924;-82
2023/12/29 02:28:25;;;;;;;;;;;;;;;;;;5120077;27;19927;-83
2023/12/29 02:30:52;;;;;;;;;;;;;;;;;;5120407;27;19935;-83
2023/12/29 02:33:19;;;;;;;;;;;;;;;;;;5081033;28;19923;-84
2023/12/29 02:35:45;;;;;;;;;;;;;;;;;;5123636;27;19924;-83
2023/12/29 02:38:12;;;;;;;;;;;;;;;;;;5118190;27;19934;-80
2023/12/29 02:40:38;;;;;;;;;;;;;;;;;;5104414;27;19924;-83
2023/12/29 02:43:05;;;;;;;;;;;;;;;;;;5106637;27;19958;-83
2023/12/29 02:45:31;;;;;;;;;;;;;;;;;;5100801;28;19934;-82
2023/12/29 02:47:58;;;;;;;;;;;;;;;;;;5104148;27;19928;-79
2023/12/29 02:50:26;;;;;;;;;;;;;;;;;;5107216;28;19924;-84
2023/12/29 02:52:52;;;;;;;;;;;;;;;;;;5102908;27;20393;-81
2023/12/29 02:55:19;;;;;;;;;;;;;;;;;;5104282;27;19935;-82
2023/12/29 02:57:45;;;;;;;;;;;;;;;;;;5098931;27;19935;-81
2023/12/29 03:00:12;;;;;;;;;;;;;;;;;;5105645;28;19924;-80
2023/12/29 03:02:38;;;;;;;;;;;;;;;;;;5122007;27;19988;-82
2023/12/29 03:05:05;;;;;;;;;;;;;;;;;;5117265;27;19931;-84
2023/12/29 03:07:32;;;;;;;;;;;;;;;;;;5098622;28;19924;-82
2023/12/29 03:09:58;;;;;;;;;;;;;;;;;;5100663;27;20403;-81
2023/12/29 03:12:25;;;;;;;;;;;;;;;;;;5116450;27;20402;-82
2023/12/29 03:14:53;;;;;;;;;;;;;;;;;;5101197;27;19927;-80
2023/12/29 03:17:20;;;;;;;;;;;;;;;;;;5116950;27;19959;-79
2023/12/29 03:19:47;;;;;;;;;;;;;;;;;;5097973;27;19958;-82
2023/12/29 03:22:13;;;;;;;;;;;;;;;;;;5100881;27;19924;-81
2023/12/29 03:24:40;;;;;;;;;;;;;;;;;;5101517;27;19973;-82
2023/12/29 03:27:07;;;;;;;;;;;;;;;;;;5099329;27;19927;-83
2023/12/29 03:29:34;;;;;;;;;;;;;;;;;;5099360;28;20005;-82
2023/12/29 03:32:01;;;;;;;;;;;;;;;;;;5122275;27;19923;-81
2023/12/29 03:34:28;;;;;;;;;;;;;;;;;;5100185;28;19924;-82
2023/12/29 03:36:54;;;;;;;;;;;;;;;;;;5103419;27;20138;-82
2023/12/29 03:39:21;;;;;;;;;;;;;;;;;;5100123;27;19924;-80
2023/12/29 03:41:47;;;;;;;;;;;;;;;;;;5095865;28;19931;-81
2023/12/29 03:44:15;;;;;;;;;;;;;;;;;;5100480;27;19935;-77
2023/12/29 03:46:41;;;;;;;;;;;;;;;;;;5121120;27;19923;-82
2023/12/29 03:49:08;;;;;;;;;;;;;;;;;;5081402;28;19957;-80
2023/12/29 03:51:34;;;;;;;;;;;;;;;;;;5096705;28;20001;-78
2023/12/29 03:54:01;;;;;;;;;;;;;;;;;;5114944;27;20375;-81
2023/12/29 03:56:30;;;;;;;;;;;;;;;;;;5095179;28;20002;-82
2023/12/29 03:58:57;;;;;;;;;;;;;;;;;;5103502;27;19930;-80
2023/12/29 04:01:25;;;;;;;;;;;;;;;;;;5114646;27;19924;-80
2023/12/29 04:03:51;;;;;;;;;;;;;;;;;;5112027;27;19989;-81
2023/12/29 04:06:18;;;;;;;;;;;;;;;;;;5098153;27;20020;-79
2023/12/29 04:08:44;;;;;;;;;;;;;;;;;;5114544;27;20408;-80
2023/12/29 04:11:11;;;;;;;;;;;;;;;;;;5117982;27;20002;-80
2023/12/29 04:13:38;;;;;;;;;;;;;;;;;;5096926;28;19928;-80
2023/12/29 04:16:04;;;;;;;;;;;;;;;;;;5100473;27;19928;-81
2023/12/29 04:18:31;;;;;;;;;;;;;;;;;;5097100;28;19923;-78
2023/12/29 04:20:57;;;;;;;;;;;;;;;;;;5079845;28;19931;-81
2023/12/29 04:23:24;;;;;;;;;;;;;;;;;;5113907;28;19923;-82
2023/12/29 04:25:50;;;;;;;;;;;;;;;;;;5096238;28;20453;-81
2023/12/29 04:28:17;;;;;;;;;;;;;;;;;;5094724;27;19978;-80
2023/12/29 04:30:43;;;;;;;;;;;;;;;;;;5120431;27;20399;-79
2023/12/29 04:33:10;;;;;;;;;;;;;;;;;;5118984;27;19923;-80
2023/12/29 04:35:36;;;;;;;;;;;;;;;;;;5096131;28;20410;-80
2023/12/29 04:38:02;;;;;;;;;;;;;;;;;;5087821;28;19928;-80
2023/12/29 04:40:29;;;;;;;;;;;;;;;;;;5106747;28;19929;-81
2023/12/29 04:42:55;;;;;;;;;;;;;;;;;;5102089;28;19928;-82
2023/12/29 04:45:22;;;;;;;;;;;;;;;;;;5120786;28;19923;-81
2023/12/29 04:47:48;;;;;;;;;;;;;;;;;;5078699;28;19932;-81
2023/12/29 04:50:14;;;;;;;;;;;;;;;;;;5099127;28;19930;-80
2023/12/29 04:52:41;;;;;;;;;;;;;;;;;;5103211;28;19966;-80
2023/12/29 04:55:08;;;;;;;;;;;;;;;;;;5105706;28;20295;-80
2023/12/29 04:57:34;;;;;;;;;;;;;;;;;;5098285;27;19928;-82
2023/12/29 05:00:01;;;;;;;;;;;;;;;;;;5100067;28;19973;-81
2023/12/29 05:02:27;;;;;;;;;;;;;;;;;;5100019;27;19928;-80
2023/12/29 05:04:56;;;;;;;;;;;;;;;;;;5106890;28;19932;-81
2023/12/29 05:07:23;;;;;;;;;;;;;;;;;;5107909;27;19931;-80
2023/12/29 05:09:49;;;;;;;;;;;;;;;;;;5105183;27;19923;-81
2023/12/29 05:12:16;;;;;;;;;;;;;;;;;;5102435;28;19928;-79
2023/12/29 05:14:42;;;;;;;;;;;;;;;;;;5086736;27;19923;-80
2023/12/29 05:17:09;;;;;;;;;;;;;;;;;;5102273;27;20028;-82
2023/12/29 05:19:35;;;;;;;;;;;;;;;;;;5127085;27;19935;-80
2023/12/29 05:22:01;;;;;;;;;;;;;;;;;;5124403;27;20346;-82
2023/12/29 05:24:28;;;;;;;;;;;;;;;;;;5099810;28;20437;-81
2023/12/29 05:26:54;;;;;;;;;;;;;;;;;;5101605;27;19970;-81
2023/12/29 05:29:21;;;;;;;;;;;;;;;;;;5099278;28;19967;-80
2023/12/29 05:31:47;;;;;;;;;;;;;;;;;;5122987;27;19924;-80
2023/12/29 05:34:14;;;;;;;;;;;;;;;;;;5115242;27;20101;-80
2023/12/29 05:36:42;;;;;;;;;;;;;;;;;;5121865;27;19924;-78
2023/12/29 05:39:08;;;;;;;;;;;;;;;;;;5101097;28;19969;-81
2023/12/29 05:41:35;;;;;;;;;;;;;;;;;;5116634;27;19931;-81
2023/12/29 05:44:01;;;;;;;;;;;;;;;;;;5104322;28;19934;-81
2023/12/29 05:46:27;;;;;;;;;;;;;;;;;;5098799;28;20376;-81
2023/12/29 05:48:54;;;;;;;;;;;;;;;;;;5102053;27;20022;-80
2023/12/29 05:51:20;;;;;;;;;;;;;;;;;;5100931;27;20018;-80
2023/12/29 05:53:48;;;;;;;;;;;;;;;;;;5103090;27;19935;-82
2023/12/29 05:56:15;;;;;;;;;;;;;;;;;;5081102;28;19963;-81
2023/12/29 05:58:44;;;;;;;;;;;;;;;;;;5102465;27;19947;-81
2023/12/29 06:01:11;;;;;;;;;;;;;;;;;;5097921;27;19958;-81
2023/12/29 06:03:37;;;;;;;;;;;;;;;;;;5117357;27;19932;-80
2023/12/29 06:06:04;;;;;;;;;;;;;;;;;;5118185;27;20463;-82
2023/12/29 06:08:30;;;;;;;;;;;;;;;;;;5119653;27;20000;-80
2023/12/29 06:10:57;;;;;;;;;;;;;;;;;;5095703;28;20284;-80
2023/12/29 06:13:23;;;;;;;;;;;;;;;;;;5100649;27;20334;-81
2023/12/29 06:15:50;;;;;;;;;;;;;;;;;;5106877;27;19930;-81
2023/12/29 06:18:16;;;;;;;;;;;;;;;;;;5098183;27;19949;-81
2023/12/29 06:20:43;;;;;;;;;;;;;;;;;;5097836;28;19923;-82
2023/12/29 06:23:09;;;;;;;;;;;;;;;;;;5097659;28;19924;-80
2023/12/29 06:25:36;;;;;;;;;;;;;;;;;;5100084;28;20350;-83
2023/12/29 06:28:06;;;;;;;;;;;;;;;;;;5101536;27;19970;-82
2023/12/29 06:30:33;;;;;;;;;;;;;;;;;;5101810;27;19927;-82
2023/12/29 06:32:59;;;;;;;;;;;;;;;;;;5100329;27;19930;-81
2023/12/29 06:35:26;;;;;;;;;;;;;;;;;;5095038;28;19932;-83
2023/12/29 06:37:52;;;;;;;;;;;;;;;;;;5082841;28;19962;-80
2023/12/29 06:40:19;;;;;;;;;;;;;;;;;;5116711;27;20530;-79
2023/12/29 06:42:45;;;;;;;;;;;;;;;;;;5116127;28;19972;-79
2023/12/29 06:45:12;;;;;;;;;;;;;;;;;;5100434;27;19924;-80
2023/12/29 06:47:38;;;;;;;;;;;;;;;;;;5102646;27;19927;-82
2023/12/29 06:50:06;;;;;;;;;;;;;;;;;;5099629;27;20044;-78
2023/12/29 06:52:36;;;;;;;;;;;;;;;;;;5115968;27;19966;-80
2023/12/29 06:55:02;;;;;;;;;;;;;;;;;;5106804;27;19931;-81
2023/12/29 06:57:29;;;;;;;;;;;;;;;;;;5100877;27;19923;-79
2023/12/29 06:59:55;;;;;;;;;;;;;;;;;;5099792;28;19951;-81
2023/12/29 07:02:22;;;;;;;;;;;;;;;;;;5080869;28;19963;-79
2023/12/29 07:04:48;;;;;;;;;;;;;;;;;;5119943;27;19931;-80
2023/12/29 07:07:15;;;;;;;;;;;;;;;;;;5119963;27;19924;-80
2023/12/29 07:09:41;;;;;;;;;;;;;;;;;;5096861;28;19934;-82
2023/12/29 07:12:08;;;;;;;;;;;;;;;;;;5100127;28;19938;-80
2023/12/29 07:14:35;;;;;;;;;;;;;;;;;;5104814;27;19927;-81
2023/12/29 07:17:02;;;;;;;;;;;;;;;;;;5101461;28;19939;-78
2023/12/29 07:19:36;;;;;;;;;;;;;;;;;;5099327;28;20338;-81
2023/12/29 07:22:03;;;;;;;;;;;;;;;;;;5102848;27;19927;-80
2023/12/29 07:24:29;;;;;;;;;;;;;;;;;;5082100;28;19935;-80
2023/12/29 07:26:55;;;;;;;;;;;;;;;;;;5118614;27;19924;-81
2023/12/29 07:29:24;;;;;;;;;;;;;;;;;;5100214;28;20471;-80
2023/12/29 07:31:50;;;;;;;;;;;;;;;;;;5119685;27;19934;-80
2023/12/29 07:34:17;;;;;;;;;;;;;;;;;;5097154;28;19931;-80
2023/12/29 07:36:43;;;;;;;;;;;;;;;;;;5099020;27;19931;-80
2023/12/29 07:39:10;;;;;;;;;;;;;;;;;;5101148;28;19942;-81
2023/12/29 07:41:36;;;;;;;;;;;;;;;;;;5099622;27;19932;-81
2023/12/29 07:44:03;;;;;;;;;;;;;;;;;;5094918;28;19928;-80
2023/12/29 07:46:29;;;;;;;;;;;;;;;;;;5100410;27;19963;-81
2023/12/29 07:48:56;;;;;;;;;;;;;;;;;;5100590;27;19928;-81
2023/12/29 07:51:22;;;;;;;;;;;;;;;;;;5098477;27;19923;-82
2023/12/29 07:53:49;;;;;;;;;;;;;;;;;;5096286;28;19924;-81
2023/12/29 07:56:15;;;;;;;;;;;;;;;;;;5116406;27;19932;-81
2023/12/29 07:58:42;;;;;;;;;;;;;;;;;;5094783;28;19924;-80
2023/12/29 08:01:11;;;;;;;;;;;;;;;;;;5103183;27;19962;-81
2023/12/29 08:03:37;;;;;;;;;;;;;;;;;;5104012;27;20584;-80
2023/12/29 08:06:04;;;;;;;;;;;;;;;;;;5097470;28;20384;-79
2023/12/29 08:08:30;;;;;;;;;;;;;;;;;;5113505;27;19923;-80
2023/12/29 08:10:57;;;;;;;;;;;;;;;;;;5115536;27;20015;-82
2023/12/29 08:13:23;;;;;;;;;;;;;;;;;;5120611;27;19980;-82
2023/12/29 08:15:50;;;;;;;;;;;;;;;;;;5103098;27;19940;-84
2023/12/29 08:18:16;;;;;;;;;;;;;;;;;;5108387;27;19953;-84
2023/12/29 08:20:43;;;;;;;;;;;;;;;;;;5092762;27;19924;-84
2023/12/29 08:23:09;;;;;;;;;;;;;;;;;;5097577;28;20340;-84
2023/12/29 08:25:38;;;;;;;;;;;;;;;;;;5117517;27;20040;-83
2023/12/29 08:28:05;;;;;;;;;;;;;;;;;;5099515;28;20008;-82
2023/12/29 08:30:31;;;;;;;;;;;;;;;;;;5119470;28;19938;-85
2023/12/29 08:32:58;;;;;;;;;;;;;;;;;;5098325;28;20364;-84
2023/12/29 08:35:24;;;;;;;;;;;;;;;;;;5097765;28;19924;-85
2023/12/29 08:37:51;;;;;;;;;;;;;;;;;;5116963;28;20347;-84
2023/12/29 08:40:17;;;;;;;;;;;;;;;;;;5095845;28;19967;-85
2023/12/29 08:42:44;;;;;;;;;;;;;;;;;;5097365;28;19934;-84
2023/12/29 08:45:10;;;;;;;;;;;;;;;;;;5100205;28;19934;-84
2023/12/29 08:47:37;;;;;;;;;;;;;;;;;;5097839;28;19953;-86
2023/12/29 08:50:04;;;;;;;;;;;;;;;;;;5099407;28;19923;-85
2023/12/29 08:52:30;;;;;;;;;;;;;;;;;;5120550;28;19928;-86
2023/12/29 08:54:56;;;;;;;;;;;;;;;;;;5100429;28;19924;-85
2023/12/29 08:57:23;;;;;;;;;;;;;;;;;;5082785;28;19967;-85
2023/12/29 08:59:49;;;;;;;;;;;;;;;;;;5117832;28;20030;-85
2023/12/29 09:02:17;;;;;;;;;;;;;;;;;;5118602;28;20098;-86
2023/12/29 09:04:43;;;;;;;;;;;;;;;;;;5083584;28;20407;-85
2023/12/29 09:07:10;;;;;;;;;;;;;;;;;;5117388;28;19946;-83
2023/12/29 09:09:36;;;;;;;;;;;;;;;;;;5120498;28;20036;-81
2023/12/29 09:12:03;;;;;;;;;;;;;;;;;;5098913;28;20382;-86
2023/12/29 09:14:32;;;;;;;;;;;;;;;;;;5083578;28;19928;-84
2023/12/29 09:16:58;;;;;;;;;;;;;;;;;;5102417;28;19927;-86
2023/12/29 09:19:25;;;;;;;;;;;;;;;;;;5098899;28;19927;-85
2023/12/29 09:21:56;;;;;;;;;;;;;;;;;;5101705;28;19959;-83
2023/12/29 09:24:23;;;;;;;;;;;;;;;;;;5100904;28;19927;-85
2023/12/29 09:26:51;;;;;;;;;;;;;;;;;;5081815;28;19931;-85
2023/12/29 09:29:17;;;;;;;;;;;;;;;;;;5103550;28;19931;-86
2023/12/29 09:31:43;;;;;;;;;;;;;;;;;;5106526;28;19927;-85
2023/12/29 09:34:10;;;;;;;;;;;;;;;;;;5116747;28;19976;-86
2023/12/29 09:36:36;;;;;;;;;;;;;;;;;;5117362;28;19923;-85
2023/12/29 09:39:03;;;;;;;;;;;;;;;;;;5096960;28;19976;-82
2023/12/29 09:41:29;;;;;;;;;;;;;;;;;;5117446;28;20045;-83
2023/12/29 09:43:56;;;;;;;;;;;;;;;;;;5097770;28;19950;-84
2023/12/29 09:46:23;;;;;;;;;;;;;;;;;;5103227;27;19957;-85
2023/12/29 09:48:49;;;;;;;;;;;;;;;;;;5107841;27;19927;-83
2023/12/29 09:51:16;;;;;;;;;;;;;;;;;;5083335;27;19931;-85
2023/12/29 09:53:42;;;;;;;;;;;;;;;;;;5099383;27;20392;-84
2023/12/29 09:56:09;;;;;;;;;;;;;;;;;;5118899;27;19958;-83
2023/12/29 09:58:37;;;;;;;;;;;;;;;;;;5102151;28;20333;-82
2023/12/29 10:01:05;;;;;;;;;;;;;;;;;;5122665;27;19923;-83
2023/12/29 10:03:31;;;;;;;;;;;;;;;;;;5117364;27;19923;-84
2023/12/29 10:05:57;;;;;;;;;;;;;;;;;;5117640;27;19924;-82
2023/12/29 10:08:24;;;;;;;;;;;;;;;;;;5089382;27;19963;-81
2023/12/29 10:10:50;;;;;;;;;;;;;;;;;;5122211;27;19923;-82
2023/12/29 10:13:17;;;;;;;;;;;;;;;;;;5116015;27;19989;-83
2023/12/29 10:15:43;;;;;;;;;;;;;;;;;;5098793;28;20407;-83
2023/12/29 10:18:10;;;;;;;;;;;;;;;;;;5106630;27;19962;-82
2023/12/29 10:20:36;;;;;;;;;;;;;;;;;;5107733;27;20023;-82
2023/12/29 10:23:03;;;;;;;;;;;;;;;;;;5113993;27;20420;-81
2023/12/29 10:25:30;;;;;;;;;;;;;;;;;;5103054;28;19977;-81
2023/12/29 10:27:56;;;;;;;;;;;;;;;;;;5103415;27;19923;-80
2023/12/29 10:30:23;;;;;;;;;;;;;;;;;;5120076;27;19935;-82
2023/12/29 10:32:54;;;;;;;;;;;;;;;;;;5103888;27;19923;-81
2023/12/29 10:35:20;;;;;;;;;;;;;;;;;;5104780;27;19927;-79
2023/12/29 10:37:48;;;;;;;;;;;;;;;;;;5093088;28;20352;-82
2023/12/29 10:40:14;;;;;;;;;;;;;;;;;;5075303;28;19924;-82
2023/12/29 10:42:41;;;;;;;;;;;;;;;;;;5103563;28;19931;-81
2023/12/29 10:45:08;;;;;;;;;;;;;;;;;;5099264;28;19928;-80
2023/12/29 10:47:35;;;;;;;;;;;;;;;;;;5117810;27;19924;-82
2023/12/29 10:50:01;;;;;;;;;;;;;;;;;;5101170;27;19923;-81
2023/12/29 10:52:28;;;;;;;;;;;;;;;;;;5102378;27;20411;-82
2023/12/29 10:54:54;;;;;;;;;;;;;;;;;;5085733;27;19959;-81
2023/12/29 10:57:21;;;;;;;;;;;;;;;;;;5121390;27;20348;-80
2023/12/29 10:59:48;;;;;;;;;;;;;;;;;;5132342;27;19924;-81
2023/12/29 11:02:14;;;;;;;;;;;;;;;;;;5107247;27;19984;-77
2023/12/29 11:04:41;;;;;;;;;;;;;;;;;;5119370;27;19963;-81
2023/12/29 11:07:08;;;;;;;;;;;;;;;;;;5116941;27;20349;-82
2023/12/29 11:09:34;;;;;;;;;;;;;;;;;;5101281;28;19923;-80
2023/12/29 11:12:01;;;;;;;;;;;;;;;;;;5108872;28;20457;-79
2023/12/29 11:14:30;;;;;;;;;;;;;;;;;;5101654;27;19932;-83
2023/12/29 11:16:58;;;;;;;;;;;;;;;;;;5119660;27;19924;-84
2023/12/29 11:19:25;;;;;;;;;;;;;;;;;;5121843;27;20410;-83
2023/12/29 11:21:53;;;;;;;;;;;;;;;;;;5087257;27;19959;-82
2023/12/29 11:24:20;;;;;;;;;;;;;;;;;;5103083;27;20008;-83
2023/12/29 11:26:53;;;;;;;;;;;;;;;;;;5118634;27;19923;-83
2023/12/29 11:29:19;;;;;;;;;;;;;;;;;;5117471;27;20398;-84
2023/12/29 11:31:48;;;;;;;;;;;;;;;;;;5098653;27;20328;-84
2023/12/29 11:34:15;;;;;;;;;;;;;;;;;;5123609;27;19931;-83
2023/12/29 11:36:42;;;;;;;;;;;;;;;;;;5118449;27;19976;-84
2023/12/29 11:39:08;;;;;;;;;;;;;;;;;;5100713;28;19984;-80
2023/12/29 11:41:34;;;;;;;;;;;;;;;;;;5102143;28;19924;-83
2023/12/29 11:44:01;;;;;;;;;;;;;;;;;;5104027;27;20022;-80
2023/12/29 11:46:28;;;;;;;;;;;;;;;;;;5119404;27;19935;-83
2023/12/29 11:48:58;;;;;;;;;;;;;;;;;;5120049;27;19942;-82
2023/12/29 11:51:24;;;;;;;;;;;;;;;;;;5102340;28;19961;-83
2023/12/29 11:53:51;;;;;;;;;;;;;;;;;;5116469;27;19969;-82
2023/12/29 11:56:17;;;;;;;;;;;;;;;;;;5118137;27;19945;-82
2023/12/29 11:58:44;;;;;;;;;;;;;;;;;;5120548;27;19924;-81
2023/12/29 12:01:10;;;;;;;;;;;;;;;;;;5098311;27;20387;-82
2023/12/29 12:03:36;;;;;;;;;;;;;;;;;;5112678;27;19954;-81
2023/12/29 12:06:03;;;;;;;;;;;;;;;;;;5100131;28;20039;-80
2023/12/29 12:08:31;;;;;;;;;;;;;;;;;;5081483;28;19966;-81
2023/12/29 12:10:57;;;;;;;;;;;;;;;;;;5093243;28;19924;-81
2023/12/29 12:13:23;;;;;;;;;;;;;;;;;;5107757;28;19923;-84
2023/12/29 12:15:50;;;;;;;;;;;;;;;;;;5101554;27;19977;-81
2023/12/29 12:18:16;;;;;;;;;;;;;;;;;;5103207;27;19938;-80
2023/12/29 12:20:43;;;;;;;;;;;;;;;;;;5086504;27;19990;-83
2023/12/29 12:23:09;;;;;;;;;;;;;;;;;;5092544;28;19935;-82
2023/12/29 12:25:37;;;;;;;;;;;;;;;;;;5114996;28;20383;-83
2023/12/29 12:28:03;;;;;;;;;;;;;;;;;;5081910;28;19981;-82
2023/12/29 12:30:30;;;;;;;;;;;;;;;;;;5098621;28;19935;-81
2023/12/29 12:32:56;;;;;;;;;;;;;;;;;;5101211;28;19928;-84
2023/12/29 12:35:23;;;;;;;;;;;;;;;;;;5116611;27;20018;-83
2023/12/29 12:37:51;;;;;;;;;;;;;;;;;;5120900;27;19981;-84
2023/12/29 12:40:18;;;;;;;;;;;;;;;;;;5115867;28;19970;-83
2023/12/29 12:42:44;;;;;;;;;;;;;;;;;;5120745;28;19977;-80
2023/12/29 12:45:11;;;;;;;;;;;;;;;;;;5102075;28;19924;-81
2023/12/29 12:47:37;;;;;;;;;;;;;;;;;;5096513;28;19986;-81
2023/12/29 12:50:04;;;;;;;;;;;;;;;;;;5121473;28;19924;-81
2023/12/29 12:52:30;;;;;;;;;;;;;;;;;;5124173;28;19927;-79
2023/12/29 12:54:57;;;;;;;;;;;;;;;;;;5099364;28;19923;-81
2023/12/29 12:57:23;;;;;;;;;;;;;;;;;;5108961;28;20280;-82
2023/12/29 12:59:50;;;;;;;;;;;;;;;;;;5125936;28;19957;-80
2023/12/29 13:02:16;;;;;;;;;;;;;;;;;;5083252;28;19923;-80
2023/12/29 13:04:43;;;;;;;;;;;;;;;;;;5102403;28;19931;-81
2023/12/29 13:07:09;;;;;;;;;;;;;;;;;;5123068;28;19931;-82
2023/12/29 13:09:36;;;;;;;;;;;;;;;;;;5099849;28;19924;-80
2023/12/29 13:12:05;;;;;;;;;;;;;;;;;;5096723;28;20018;-82
2023/12/29 13:14:32;;;;;;;;;;;;;;;;;;5115695;28;19934;-82
2023/12/29 13:16:58;;;;;;;;;;;;;;;;;;5115912;28;19924;-83
2023/12/29 13:19:27;;;;;;;;;;;;;;;;;;5094360;27;19953;-82
2023/12/29 13:21:56;;;;;;;;;;;;;;;;;;5108840;28;19924;-82
2023/12/29 13:24:23;;;;;;;;;;;;;;;;;;5108975;28;19949;-82
2023/12/29 13:26:52;;;;;;;;;;;;;;;;;;5125978;27;19932;-83
2023/12/29 13:29:18;;;;;;;;;;;;;;;;;;5109189;28;19927;-81
2023/12/29 13:31:45;;;;;;;;;;;;;;;;;;5082799;28;19932;-82
2023/12/29 13:34:11;;;;;;;;;;;;;;;;;;5128719;27;19935;-82
2023/12/29 13:36:37;;;;;;;;;;;;;;;;;;5130390;27;19923;-81
2023/12/29 13:39:05;;;;;;;;;;;;;;;;;;5126520;27;19935;-82
2023/12/29 13:41:31;;;;;;;;;;;;;;;;;;5101450;28;19924;-80
2023/12/29 13:43:58;;;;;;;;;;;;;;;;;;5106392;27;19983;-83
2023/12/29 13:46:24;;;;;;;;;;;;;;;;;;5109618;27;20346;-81
2023/12/29 13:48:51;;;;;;;;;;;;;;;;;;5102025;27;19977;-82
2023/12/29 13:51:18;;;;;;;;;;;;;;;;;;5110135;27;19923;-81
2023/12/29 13:53:46;;;;;;;;;;;;;;;;;;5099972;27;19923;-82
2023/12/29 13:56:12;;;;;;;;;;;;;;;;;;5107068;28;20303;-82
2023/12/29 13:58:38;;;;;;;;;;;;;;;;;;5122576;27;19955;-82
2023/12/29 14:01:05;;;;;;;;;;;;;;;;;;5122499;27;19928;-82
2023/12/29 14:03:37;;;;;;;;;;;;;;;;;;5104234;27;20026;-82
2023/12/29 14:06:04;;;;;;;;;;;;;;;;;;5121945;27;20003;-81
2023/12/29 14:08:30;;;;;;;;;;;;;;;;;;5100640;28;19951;-80
2023/12/29 14:10:57;;;;;;;;;;;;;;;;;;5106081;27;20344;-83
2023/12/29 14:13:23;;;;;;;;;;;;;;;;;;5107027;27;19928;-77
2023/12/29 14:15:53;;;;;;;;;;;;;;;;;;5105421;28;19928;-79
2023/12/29 14:18:19;;;;;;;;;;;;;;;;;;5102750;27;19927;-80
2023/12/29 14:20:46;;;;;;;;;;;;;;;;;;5126173;27;19955;-80
2023/12/29 14:23:12;;;;;;;;;;;;;;;;;;5101355;27;19927;-78
2023/12/29 14:25:39;;;;;;;;;;;;;;;;;;5126412;27;19930;-80
2023/12/29 14:28:05;;;;;;;;;;;;;;;;;;5119016;27;19974;-78
2023/12/29 14:30:33;;;;;;;;;;;;;;;;;;5120163;27;19962;-79
2023/12/29 14:33:00;;;;;;;;;;;;;;;;;;5122320;27;19924;-80
2023/12/29 14:35:26;;;;;;;;;;;;;;;;;;5105507;28;20338;-79
2023/12/29 14:37:54;;;;;;;;;;;;;;;;;;5120084;27;20030;-77
2023/12/29 14:40:20;;;;;;;;;;;;;;;;;;5103913;27;19931;-80
2023/12/29 14:42:46;;;;;;;;;;;;;;;;;;5105282;27;19972;-78
2023/12/29 14:45:13;;;;;;;;;;;;;;;;;;5122784;27;19989;-78
2023/12/29 14:47:39;;;;;;;;;;;;;;;;;;5103605;28;20018;-79
2023/12/29 14:50:06;;;;;;;;;;;;;;;;;;5097670;28;20015;-78
2023/12/29 14:52:33;;;;;;;;;;;;;;;;;;5086401;27;20341;-78
2023/12/29 14:54:59;;;;;;;;;;;;;;;;;;5104754;27;19972;-78
2023/12/29 14:57:26;;;;;;;;;;;;;;;;;;5106791;27;19976;-78
2023/12/29 14:59:52;;;;;;;;;;;;;;;;;;5106125;27;19924;-79
2023/12/29 15:02:18;;;;;;;;;;;;;;;;;;5099510;27;19980;-80
2023/12/29 15:04:45;;;;;;;;;;;;;;;;;;5120476;27;19924;-79
2023/12/29 15:07:12;;;;;;;;;;;;;;;;;;5102147;27;19927;-78
2023/12/29 15:09:38;;;;;;;;;;;;;;;;;;5099899;27;19924;-80
2023/12/29 15:12:05;;;;;;;;;;;;;;;;;;5117984;27;19980;-79
2023/12/29 15:14:31;;;;;;;;;;;;;;;;;;5102487;27;19934;-79
2023/12/29 15:16:57;;;;;;;;;;;;;;;;;;5121859;27;20282;-79
2023/12/29 15:19:24;;;;;;;;;;;;;;;;;;5103567;27;19924;-79
2023/12/29 15:21:53;;;;;;;;;;;;;;;;;;5115511;27;20031;-77
2023/12/29 15:24:20;;;;;;;;;;;;;;;;;;5097259;27;19924;-81
2023/12/29 15:26:46;;;;;;;;;;;;;;;;;;5114251;27;19934;-79
2023/12/29 15:29:13;;;;;;;;;;;;;;;;;;5121170;27;20418;-79
2023/12/29 15:31:39;;;;;;;;;;;;;;;;;;5123453;27;19923;-80
2023/12/29 15:34:06;;;;;;;;;;;;;;;;;;5087806;27;19927;-80
2023/12/29 15:36:32;;;;;;;;;;;;;;;;;;5116949;27;19931;-82
2023/12/29 15:39:01;;;;;;;;;;;;;;;;;;5115251;28;19924;-83
2023/12/29 15:41:31;;;;;;;;;;;;;;;;;;5115247;28;20286;-82
2023/12/29 15:43:58;;;;;;;;;;;;;;;;;;5115869;27;19935;-77
2023/12/29 15:46:24;;;;;;;;;;;;;;;;;;5102869;27;19974;-77
2023/12/29 15:48:51;;;;;;;;;;;;;;;;;;5095493;28;19951;-78
2023/12/29 15:51:17;;;;;;;;;;;;;;;;;;5079633;27;19924;-77
2023/12/29 15:53:44;;;;;;;;;;;;;;;;;;5094426;27;19928;-79
2023/12/29 15:56:11;;;;;;;;;;;;;;;;;;5077575;27;19928;-78
2023/12/29 15:58:37;;;;;;;;;;;;;;;;;;5112926;27;19967;-79
2023/12/29 16:01:03;;;;;;;;;;;;;;;;;;5101591;28;19923;-78
2023/12/29 16:03:30;;;;;;;;;;;;;;;;;;5083278;28;19970;-79
2023/12/29 16:06:00;;;;;;;;;;;;;;;;;;5100465;28;20010;-78
2023/12/29 16:08:27;;;;;;;;;;;;;;;;;;5105685;28;19931;-78
2023/12/29 16:10:57;;;;;;;;;;;;;;;;;;5104540;27;20026;-80
2023/12/29 16:13:24;;;;;;;;;;;;;;;;;;5083157;28;19958;-79
2023/12/29 16:15:50;;;;;;;;;;;;;;;;;;5102325;27;19972;-79
2023/12/29 16:18:17;;;;;;;;;;;;;;;;;;5121617;27;19928;-80
2023/12/29 16:20:43;;;;;;;;;;;;;;;;;;5117938;27;19934;-79
2023/12/29 16:23:09;;;;;;;;;;;;;;;;;;5101258;27;19923;-78
2023/12/29 16:25:36;;;;;;;;;;;;;;;;;;5115598;27;19963;-79
2023/12/29 16:28:02;;;;;;;;;;;;;;;;;;5095795;27;19923;-80
2023/12/29 16:30:29;;;;;;;;;;;;;;;;;;5120190;27;19923;-79
2023/12/29 16:32:57;;;;;;;;;;;;;;;;;;5085754;28;20280;-77
2023/12/29 16:35:27;;;;;;;;;;;;;;;;;;5097828;28;19928;-78
2023/12/29 16:37:53;;;;;;;;;;;;;;;;;;5087205;28;20483;-78
2023/12/29 16:40:19;;;;;;;;;;;;;;;;;;5118929;27;19962;-81
2023/12/29 16:42:46;;;;;;;;;;;;;;;;;;5100099;28;20334;-77